Time;durP1;ratioP1;P1;durP2;ratioP2;P2;SDS_P1;SDS_P2;PMS_P1;PMS_P2;Temp;Humidity;BMP_temperature;BMP_pressure;BME280_temperature;BME280_humidity;BME280_pressure;Samples;Min_cycle;Max_cycle;Signal;HPM_P1;HPM_P2
2021/11/29 00:00:13;;;;;;;2.35;1.98;;;;;;;;;;5065146;28;20217;-77
2021/11/29 00:02:40;;;;;;;4.05;3.28;;;;;;;;;;5066379;28;20268;-77
2021/11/29 00:05:07;;;;;;;2.65;2.33;;;;;;;;;;5059006;28;20199;-77
2021/11/29 00:07:34;;;;;;;3.15;2.83;;;;;;;;;;5064696;28;20199;-77
2021/11/29 00:10:04;;;;;;;4.10;2.40;;;;;;;;;;5056083;28;20685;-77
2021/11/29 00:12:32;;;;;;;3.10;2.58;;;;;;;;;;5052464;28;20201;-76
2021/11/29 00:14:59;;;;;;;4.18;2.65;;;;;;;;;;5058859;28;20207;-77
2021/11/29 00:17:26;;;;;;;3.20;2.88;;;;;;;;;;5064156;28;20209;-77
2021/11/29 00:19:53;;;;;;;4.05;3.17;;;;;;;;;;5055482;28;20604;-76
2021/11/29 00:22:20;;;;;;;4.75;3.92;;;;;;;;;;5051480;28;20213;-76
2021/11/29 00:24:47;;;;;;;4.18;3.28;;;;;;;;;;5063940;28;20585;-76
2021/11/29 00:27:15;;;;;;;4.55;3.67;;;;;;;;;;5055132;28;20674;-77
2021/11/29 00:29:44;;;;;;;5.45;4.22;;;;;;;;;;5055265;28;20222;-76
2021/11/29 00:32:11;;;;;;;3.20;2.90;;;;;;;;;;5058862;28;20950;-77
2021/11/29 00:34:38;;;;;;;3.75;3.20;;;;;;;;;;5053719;28;20202;-77
2021/11/29 00:37:05;;;;;;;3.55;3.25;;;;;;;;;;5058075;28;20207;-77
2021/11/29 00:39:33;;;;;;;3.50;3.20;;;;;;;;;;5050452;28;20678;-77
2021/11/29 00:42:01;;;;;;;3.25;2.95;;;;;;;;;;5049934;28;20199;-77
2021/11/29 00:44:28;;;;;;;5.63;3.72;;;;;;;;;;5052446;28;20203;-77
2021/11/29 00:46:56;;;;;;;3.60;3.30;;;;;;;;;;5053531;28;20205;-77
2021/11/29 00:49:24;;;;;;;4.25;3.70;;;;;;;;;;5052741;28;20225;-79
2021/11/29 00:51:51;;;;;;;3.83;3.25;;;;;;;;;;5055126;28;20651;-77
2021/11/29 00:54:18;;;;;;;5.40;2.95;;;;;;;;;;5051279;28;20206;-79
2021/11/29 00:56:45;;;;;;;4.60;4.20;;;;;;;;;;5060209;28;20214;-78
2021/11/29 00:59:12;;;;;;;5.40;3.53;;;;;;;;;;5057045;28;20211;-77
2021/11/29 01:01:39;;;;;;;3.70;3.40;;;;;;;;;;5052877;28;20197;-77
2021/11/29 01:04:07;;;;;;;5.68;3.67;;;;;;;;;;5055562;28;20411;-77
2021/11/29 01:06:34;;;;;;;3.58;3.28;;;;;;;;;;5052419;28;20666;-77
2021/11/29 01:09:01;;;;;;;4.32;3.88;;;;;;;;;;5058052;28;20214;-77
2021/11/29 01:11:28;;;;;;;4.45;3.85;;;;;;;;;;5052845;28;20285;-77
2021/11/29 01:13:55;;;;;;;4.60;3.65;;;;;;;;;;5049982;28;20590;-77
2021/11/29 01:16:22;;;;;;;4.00;3.60;;;;;;;;;;5057999;28;20195;-77
2021/11/29 01:18:50;;;;;;;5.10;3.30;;;;;;;;;;5050636;28;20210;-77
2021/11/29 01:21:18;;;;;;;4.57;4.13;;;;;;;;;;5056353;28;20565;-77
2021/11/29 01:23:45;;;;;;;3.63;3.33;;;;;;;;;;5068378;28;20577;-77
2021/11/29 01:26:12;;;;;;;4.68;4.28;;;;;;;;;;5057342;28;20263;-77
2021/11/29 01:28:40;;;;;;;3.45;3.15;;;;;;;;;;5062459;28;20686;-78
2021/11/29 01:31:07;;;;;;;4.95;3.63;;;;;;;;;;5057830;28;20236;-77
2021/11/29 01:33:35;;;;;;;3.63;3.22;;;;;;;;;;5064440;28;20190;-77
2021/11/29 01:36:02;;;;;;;4.10;3.70;;;;;;;;;;5063457;28;20199;-78
2021/11/29 01:38:30;;;;;;;3.22;2.92;;;;;;;;;;5055301;28;20616;-78
2021/11/29 01:40:57;;;;;;;3.47;3.17;;;;;;;;;;5056139;28;20187;-77
2021/11/29 01:43:24;;;;;;;4.07;3.60;;;;;;;;;;5063716;28;20199;-77
2021/11/29 01:45:53;;;;;;;4.85;3.42;;;;;;;;;;5056371;28;20199;-77
2021/11/29 01:48:20;;;;;;;4.70;2.95;;;;;;;;;;5057287;28;20577;-77
2021/11/29 01:50:49;;;;;;;4.57;3.15;;;;;;;;;;5051531;28;20210;-77
2021/11/29 01:53:16;;;;;;;3.45;2.83;;;;;;;;;;5053022;28;20194;-77
2021/11/29 01:55:45;;;;;;;3.75;3.08;;;;;;;;;;5062583;28;20672;-77
2021/11/29 01:58:12;;;;;;;3.40;3.10;;;;;;;;;;5063000;28;20218;-77
2021/11/29 02:00:41;;;;;;;3.67;3.38;;;;;;;;;;5060071;28;20217;-77
2021/11/29 02:03:09;;;;;;;12.68;3.45;;;;;;;;;;5062366;28;20202;-77
2021/11/29 02:05:36;;;;;;;3.78;3.13;;;;;;;;;;5060418;28;20249;-77
2021/11/29 02:08:04;;;;;;;3.38;3.10;;;;;;;;;;5072895;28;20198;-78
2021/11/29 02:10:31;;;;;;;4.03;3.72;;;;;;;;;;5063774;28;20223;-77
2021/11/29 02:13:00;;;;;;;4.70;2.88;;;;;;;;;;5061886;28;20269;-77
2021/11/29 02:15:27;;;;;;;4.43;3.28;;;;;;;;;;5064492;28;20205;-77
2021/11/29 02:17:57;;;;;;;5.22;2.88;;;;;;;;;;5070863;28;20244;-77
2021/11/29 02:20:24;;;;;;;3.75;3.30;;;;;;;;;;5073886;28;20194;-77
2021/11/29 02:22:52;;;;;;;3.35;2.75;;;;;;;;;;5058331;28;20662;-77
2021/11/29 02:25:20;;;;;;;4.65;2.65;;;;;;;;;;5069864;28;20195;-77
2021/11/29 02:27:49;;;;;;;2.78;2.50;;;;;;;;;;5059664;28;20203;-77
2021/11/29 02:30:17;;;;;;;2.95;2.72;;;;;;;;;;5054009;28;20694;-77
2021/11/29 02:32:44;;;;;;;3.95;3.20;;;;;;;;;;5060619;28;20207;-77
2021/11/29 02:35:11;;;;;;;3.33;3.00;;;;;;;;;;5063511;28;20195;-77
2021/11/29 02:37:39;;;;;;;2.78;2.55;;;;;;;;;;5062979;28;20195;-78
2021/11/29 02:40:08;;;;;;;3.20;2.60;;;;;;;;;;5052551;28;20264;-77
2021/11/29 02:42:35;;;;;;;4.63;3.22;;;;;;;;;;5061018;28;20242;-76
2021/11/29 02:45:03;;;;;;;2.63;2.40;;;;;;;;;;5061364;28;20577;-76
2021/11/29 02:47:30;;;;;;;3.97;3.10;;;;;;;;;;5055790;28;20256;-77
2021/11/29 02:49:57;;;;;;;3.67;3.10;;;;;;;;;;5057423;28;20210;-77
2021/11/29 02:52:24;;;;;;;4.15;3.30;;;;;;;;;;5055402;28;20659;-77
2021/11/29 02:54:51;;;;;;;7.25;2.80;;;;;;;;;;5067494;28;20194;-77
2021/11/29 02:57:22;;;;;;;3.38;2.60;;;;;;;;;;5064450;28;20206;-77
2021/11/29 02:59:49;;;;;;;3.10;2.80;;;;;;;;;;5053614;28;20211;-77
2021/11/29 03:02:17;;;;;;;4.18;3.15;;;;;;;;;;5061413;28;20646;-77
2021/11/29 03:04:45;;;;;;;3.83;3.22;;;;;;;;;;5062911;28;20206;-77
2021/11/29 03:07:13;;;;;;;3.92;3.17;;;;;;;;;;5055864;28;20286;-77
2021/11/29 03:09:40;;;;;;;2.95;2.65;;;;;;;;;;5063739;28;20601;-77
2021/11/29 03:12:08;;;;;;;2.88;2.13;;;;;;;;;;5064444;28;20228;-78
2021/11/29 03:14:36;;;;;;;4.10;3.28;;;;;;;;;;5057589;28;20199;-77
2021/11/29 03:17:03;;;;;;;3.22;2.60;;;;;;;;;;5051958;28;20202;-76
2021/11/29 03:19:31;;;;;;;3.50;3.15;;;;;;;;;;5056824;28;20205;-78
2021/11/29 03:21:58;;;;;;;4.45;3.55;;;;;;;;;;5058638;28;20601;-78
2021/11/29 03:24:25;;;;;;;3.85;2.38;;;;;;;;;;5055155;28;20210;-77
2021/11/29 03:26:52;;;;;;;5.00;2.90;;;;;;;;;;5060127;28;20206;-77
2021/11/29 03:29:22;;;;;;;4.72;2.35;;;;;;;;;;5062402;28;20202;-78
2021/11/29 03:31:52;;;;;;;2.88;2.55;;;;;;;;;;5064337;28;20841;-78
2021/11/29 03:34:19;;;;;;;8.82;2.72;;;;;;;;;;5063165;28;20199;-77
2021/11/29 03:36:47;;;;;;;4.47;2.60;;;;;;;;;;5063373;28;20564;-77
2021/11/29 03:39:16;;;;;;;3.05;2.20;;;;;;;;;;5056244;28;21789;-78
2021/11/29 03:41:44;;;;;;;2.47;2.17;;;;;;;;;;5062294;28;20198;-77
2021/11/29 03:44:11;;;;;;;3.17;2.30;;;;;;;;;;5065433;28;20274;-77
2021/11/29 03:46:38;;;;;;;5.25;2.35;;;;;;;;;;5058315;28;20194;-77
2021/11/29 03:49:07;;;;;;;3.40;3.10;;;;;;;;;;5056320;28;20207;-77
2021/11/29 03:51:34;;;;;;;2.53;2.33;;;;;;;;;;5069521;28;20565;-76
2021/11/29 03:54:01;;;;;;;2.97;2.60;;;;;;;;;;5056624;28;20564;-78
2021/11/29 03:56:28;;;;;;;3.22;2.92;;;;;;;;;;5063396;28;20202;-77
2021/11/29 03:58:55;;;;;;;5.40;2.25;;;;;;;;;;5054162;28;20423;-78
2021/11/29 04:01:22;;;;;;;3.17;2.80;;;;;;;;;;5060590;28;20191;-78
2021/11/29 04:03:49;;;;;;;3.65;2.25;;;;;;;;;;5053759;28;20210;-78
2021/11/29 04:06:18;;;;;;;3.55;2.30;;;;;;;;;;5058676;28;20264;-77
2021/11/29 04:08:45;;;;;;;3.92;2.22;;;;;;;;;;5057062;28;20307;-77
2021/11/29 04:11:12;;;;;;;2.75;2.55;;;;;;;;;;5053064;28;20608;-77
2021/11/29 04:13:41;;;;;;;2.70;1.95;;;;;;;;;;5059906;28;20621;-77
2021/11/29 04:16:08;;;;;;;3.80;2.42;;;;;;;;;;5056192;28;20735;-78
2021/11/29 04:18:36;;;;;;;4.72;2.28;;;;;;;;;;5066507;28;20198;-77
2021/11/29 04:21:04;;;;;;;3.00;2.67;;;;;;;;;;5058001;28;20198;-78
2021/11/29 04:23:33;;;;;;;2.10;1.90;;;;;;;;;;5067814;28;20630;-77
2021/11/29 04:26:01;;;;;;;3.13;2.17;;;;;;;;;;5059260;28;20203;-77
2021/11/29 04:28:29;;;;;;;2.55;2.35;;;;;;;;;;5068986;28;20241;-77
2021/11/29 04:30:56;;;;;;;3.88;2.55;;;;;;;;;;5058882;28;20214;-77
2021/11/29 04:33:23;;;;;;;6.78;2.30;;;;;;;;;;5052431;28;20646;-77
2021/11/29 04:35:50;;;;;;;2.97;1.98;;;;;;;;;;5061844;28;20198;-78
2021/11/29 04:38:17;;;;;;;3.50;2.25;;;;;;;;;;5053284;28;20202;-77
2021/11/29 04:40:46;;;;;;;6.53;3.28;;;;;;;;;;5056421;28;20561;-76
2021/11/29 04:43:13;;;;;;;3.92;2.20;;;;;;;;;;5061398;28;20661;-77
2021/11/29 04:45:40;;;;;;;4.63;3.13;;;;;;;;;;5053276;28;20206;-78
2021/11/29 04:48:08;;;;;;;4.78;2.22;;;;;;;;;;5057752;28;20548;-77
2021/11/29 04:50:35;;;;;;;2.75;2.25;;;;;;;;;;5054716;28;20681;-77
2021/11/29 04:53:02;;;;;;;2.38;2.03;;;;;;;;;;5060374;28;20198;-78
2021/11/29 04:55:29;;;;;;;2.90;1.90;;;;;;;;;;5050849;28;20193;-78
2021/11/29 04:57:58;;;;;;;3.88;3.47;;;;;;;;;;5059874;28;20205;-77
2021/11/29 05:00:25;;;;;;;6.10;2.40;;;;;;;;;;5049883;28;20745;-78
2021/11/29 05:02:52;;;;;;;3.67;2.22;;;;;;;;;;5053844;28;20252;-78
2021/11/29 05:05:19;;;;;;;7.32;1.88;;;;;;;;;;5051341;28;20198;-77
2021/11/29 05:07:46;;;;;;;3.40;2.08;;;;;;;;;;5056936;28;20582;-78
2021/11/29 05:10:13;;;;;;;3.00;2.58;;;;;;;;;;5061389;28;20219;-77
2021/11/29 05:12:40;;;;;;;2.15;1.95;;;;;;;;;;5056794;28;20206;-78
2021/11/29 05:15:09;;;;;;;5.60;2.35;;;;;;;;;;5052776;28;20662;-78
2021/11/29 05:17:37;;;;;;;5.53;2.05;;;;;;;;;;5061115;28;20565;-78
2021/11/29 05:20:04;;;;;;;3.42;2.33;;;;;;;;;;5066477;28;20568;-77
2021/11/29 05:22:31;;;;;;;4.35;2.15;;;;;;;;;;5055996;28;20194;-78
2021/11/29 05:24:58;;;;;;;4.13;2.05;;;;;;;;;;5059223;28;20206;-78
2021/11/29 05:27:25;;;;;;;2.08;1.98;;;;;;;;;;5062117;28;20682;-78
2021/11/29 05:29:52;;;;;;;5.82;2.10;;;;;;;;;;5055440;28;20221;-77
2021/11/29 05:32:21;;;;;;;3.28;1.85;;;;;;;;;;5057056;28;20191;-77
2021/11/29 05:34:48;;;;;;;2.10;1.88;;;;;;;;;;5061563;28;20759;-78
2021/11/29 05:37:15;;;;;;;2.90;1.42;;;;;;;;;;5055251;28;20206;-77
2021/11/29 05:39:42;;;;;;;2.30;2.10;;;;;;;;;;5057527;28;20666;-77
2021/11/29 05:42:09;;;;;;;3.67;2.30;;;;;;;;;;5060917;28;20641;-77
2021/11/29 05:44:36;;;;;;;1.90;1.73;;;;;;;;;;5052250;28;20217;-77
2021/11/29 05:47:03;;;;;;;3.22;2.00;;;;;;;;;;5055633;28;20201;-77
2021/11/29 05:49:32;;;;;;;1.70;1.60;;;;;;;;;;5050033;28;20190;-76
2021/11/29 05:52:00;;;;;;;2.67;1.90;;;;;;;;;;5051299;28;20308;-77
2021/11/29 05:54:27;;;;;;;4.90;2.25;;;;;;;;;;5056228;28;20632;-77
2021/11/29 05:56:54;;;;;;;2.75;1.63;;;;;;;;;;5066725;28;20674;-77
2021/11/29 05:59:22;;;;;;;1.63;1.52;;;;;;;;;;5054456;28;20225;-77
2021/11/29 06:01:49;;;;;;;3.30;1.92;;;;;;;;;;5057260;28;20191;-77
2021/11/29 06:04:16;;;;;;;2.40;2.20;;;;;;;;;;5050467;28;20222;-77
2021/11/29 06:06:45;;;;;;;3.22;1.70;;;;;;;;;;5056297;28;20955;-77
2021/11/29 06:09:12;;;;;;;1.67;1.55;;;;;;;;;;5054965;28;20676;-77
2021/11/29 06:11:39;;;;;;;2.97;1.58;;;;;;;;;;5064561;28;20218;-77
2021/11/29 06:14:06;;;;;;;1.50;1.40;;;;;;;;;;5068000;28;20205;-77
2021/11/29 06:16:34;;;;;;;1.95;1.42;;;;;;;;;;5053762;28;20570;-76
2021/11/29 06:19:01;;;;;;;2.65;1.75;;;;;;;;;;5051435;28;20199;-76
2021/11/29 06:21:28;;;;;;;2.55;1.55;;;;;;;;;;5062312;28;20592;-77
2021/11/29 06:23:56;;;;;;;1.67;1.23;;;;;;;;;;5063879;28;20202;-77
2021/11/29 06:26:24;;;;;;;3.45;1.50;;;;;;;;;;5055664;28;20325;-77
2021/11/29 06:28:51;;;;;;;2.63;1.20;;;;;;;;;;5053711;28;20209;-76
2021/11/29 06:31:18;;;;;;;3.38;2.30;;;;;;;;;;5055232;28;20562;-77
2021/11/29 06:33:45;;;;;;;2.60;1.67;;;;;;;;;;5065944;28;20201;-76
2021/11/29 06:36:12;;;;;;;3.65;1.75;;;;;;;;;;5052300;28;20313;-77
2021/11/29 06:38:39;;;;;;;2.95;1.50;;;;;;;;;;5062328;28;20570;-77
2021/11/29 06:41:09;;;;;;;2.47;1.90;;;;;;;;;;5061545;28;20206;-77
2021/11/29 06:43:36;;;;;;;1.67;1.58;;;;;;;;;;5065569;28;20253;-76
2021/11/29 06:46:03;;;;;;;1.95;1.40;;;;;;;;;;5067569;28;20207;-76
2021/11/29 06:48:30;;;;;;;3.80;1.73;;;;;;;;;;5068009;28;20190;-77
2021/11/29 06:50:57;;;;;;;2.42;1.67;;;;;;;;;;5082893;28;20214;-76
2021/11/29 06:53:24;;;;;;;2.13;1.38;;;;;;;;;;5088893;28;20236;-77
2021/11/29 06:55:53;;;;;;;4.72;1.60;;;;;;;;;;5075031;28;20220;-77
2021/11/29 06:58:22;;;;;;;2.13;1.60;;;;;;;;;;5085477;28;20685;-77
2021/11/29 07:00:49;;;;;;;1.88;1.52;;;;;;;;;;5066375;28;20222;-78
2021/11/29 07:03:17;;;;;;;1.77;1.48;;;;;;;;;;5059596;28;20202;-78
2021/11/29 07:05:44;;;;;;;1.92;1.30;;;;;;;;;;5059231;28;20191;-78
2021/11/29 07:08:11;;;;;;;1.98;1.65;;;;;;;;;;5056395;28;20187;-78
2021/11/29 07:10:41;;;;;;;1.75;1.23;;;;;;;;;;5057438;28;20199;-78
2021/11/29 07:13:08;;;;;;;2.70;1.60;;;;;;;;;;5056688;28;20202;-78
2021/11/29 07:15:37;;;;;;;2.13;1.73;;;;;;;;;;5063695;28;20195;-77
2021/11/29 07:18:04;;;;;;;2.38;1.85;;;;;;;;;;5058469;28;20206;-78
2021/11/29 07:20:31;;;;;;;2.47;1.70;;;;;;;;;;5052585;28;20206;-78
2021/11/29 07:22:58;;;;;;;2.25;1.63;;;;;;;;;;5064781;28;20199;-77
2021/11/29 07:25:25;;;;;;;2.47;2.28;;;;;;;;;;5074902;28;20190;-77
2021/11/29 07:27:52;;;;;;;2.30;1.50;;;;;;;;;;5070216;28;20198;-77
2021/11/29 07:30:20;;;;;;;1.85;1.25;;;;;;;;;;5070304;28;20198;-78
2021/11/29 07:32:49;;;;;;;2.78;2.15;;;;;;;;;;5063897;28;20222;-80
2021/11/29 07:35:16;;;;;;;2.00;1.80;;;;;;;;;;5062055;28;20202;-80
2021/11/29 07:37:44;;;;;;;2.00;1.80;;;;;;;;;;5068837;28;20214;-79
2021/11/29 07:40:11;;;;;;;1.95;1.70;;;;;;;;;;5052221;28;20206;-80
2021/11/29 07:42:39;;;;;;;1.95;1.60;;;;;;;;;;5059379;28;20281;-79
2021/11/29 07:45:06;;;;;;;1.95;1.50;;;;;;;;;;5059485;28;20542;-78
2021/11/29 07:47:33;;;;;;;3.17;1.83;;;;;;;;;;5059684;28;21802;-79
2021/11/29 07:50:02;;;;;;;2.25;1.50;;;;;;;;;;5057987;28;20662;-79
2021/11/29 07:52:29;;;;;;;3.03;2.30;;;;;;;;;;5070041;28;20221;-78
2021/11/29 07:54:56;;;;;;;2.30;2.08;;;;;;;;;;5062758;28;20198;-78
2021/11/29 07:57:23;;;;;;;2.53;1.85;;;;;;;;;;5054560;28;20202;-79
2021/11/29 07:59:50;;;;;;;2.20;1.95;;;;;;;;;;5052949;28;20222;-79
2021/11/29 08:02:17;;;;;;;2.28;1.50;;;;;;;;;;5050630;28;20194;-79
2021/11/29 08:04:44;;;;;;;2.58;2.35;;;;;;;;;;5057092;28;20206;-77
2021/11/29 08:07:14;;;;;;;3.25;2.22;;;;;;;;;;5053901;28;20646;-80
2021/11/29 08:09:41;;;;;;;2.40;2.08;;;;;;;;;;5051136;28;20304;-79
2021/11/29 08:12:08;;;;;;;2.20;1.90;;;;;;;;;;5051687;28;20229;-78
2021/11/29 08:14:35;;;;;;;2.22;2.03;;;;;;;;;;5051384;28;20191;-79
2021/11/29 08:17:02;;;;;;;3.67;2.03;;;;;;;;;;5055588;28;20229;-79
2021/11/29 08:19:29;;;;;;;1.80;1.70;;;;;;;;;;5050668;28;20202;-79
2021/11/29 08:21:57;;;;;;;2.75;2.30;;;;;;;;;;5051679;28;20205;-78
2021/11/29 08:24:25;;;;;;;2.15;1.85;;;;;;;;;;5050338;28;20467;-79
2021/11/29 08:26:52;;;;;;;3.25;2.58;;;;;;;;;;5055386;28;20202;-79
2021/11/29 08:29:19;;;;;;;2.20;1.90;;;;;;;;;;5053603;28;20195;-79
2021/11/29 08:31:46;;;;;;;3.88;2.30;;;;;;;;;;5052371;28;20689;-78
2021/11/29 08:34:17;;;;;;;2.83;1.88;;;;;;;;;;5047787;28;20585;-79
2021/11/29 08:36:44;;;;;;;1.95;1.73;;;;;;;;;;5062030;28;20257;-79
2021/11/29 08:39:11;;;;;;;2.00;1.65;;;;;;;;;;5064736;28;20305;-79
2021/11/29 08:41:40;;;;;;;3.55;2.10;;;;;;;;;;5065884;28;20693;-77
2021/11/29 08:44:07;;;;;;;2.67;1.80;;;;;;;;;;5065054;28;20587;-79
2021/11/29 08:46:34;;;;;;;2.42;2.22;;;;;;;;;;5063078;28;20202;-79
2021/11/29 08:49:03;;;;;;;2.65;2.33;;;;;;;;;;5067630;28;20228;-77
2021/11/29 08:51:30;;;;;;;6.85;2.25;;;;;;;;;;5061853;28;20217;-79
2021/11/29 08:53:57;;;;;;;2.53;1.80;;;;;;;;;;5059716;28;20191;-79
2021/11/29 08:56:24;;;;;;;2.60;2.40;;;;;;;;;;5068815;28;20206;-78
2021/11/29 08:58:53;;;;;;;4.22;2.00;;;;;;;;;;5063851;28;20202;-79
2021/11/29 09:01:20;;;;;;;2.67;2.35;;;;;;;;;;5057960;28;20209;-80
2021/11/29 09:03:47;;;;;;;2.20;2.00;;;;;;;;;;5063375;28;20654;-80
2021/11/29 09:06:14;;;;;;;2.35;2.15;;;;;;;;;;5063707;28;20201;-79
2021/11/29 09:08:41;;;;;;;2.20;2.00;;;;;;;;;;5054505;28;20202;-79
2021/11/29 09:11:09;;;;;;;2.47;2.28;;;;;;;;;;5058189;28;20203;-79
2021/11/29 09:13:37;;;;;;;3.20;2.80;;;;;;;;;;5058811;28;20295;-78
2021/11/29 09:16:07;;;;;;;2.42;2.15;;;;;;;;;;5054275;28;20214;-79
2021/11/29 09:18:34;;;;;;;3.05;2.10;;;;;;;;;;5059121;28;20658;-79
2021/11/29 09:21:01;;;;;;;2.15;1.95;;;;;;;;;;5062629;28;20374;-78
2021/11/29 09:23:29;;;;;;;2.08;1.75;;;;;;;;;;5073747;28;20200;-78
2021/11/29 09:25:56;;;;;;;3.33;1.60;;;;;;;;;;5055836;28;20203;-80
2021/11/29 09:28:23;;;;;;;4.20;2.40;;;;;;;;;;5069986;28;20194;-79
2021/11/29 09:30:51;;;;;;;1.80;1.70;;;;;;;;;;5055316;28;20539;-80
2021/11/29 09:33:21;;;;;;;2.45;2.03;;;;;;;;;;5063798;28;20218;-80
2021/11/29 09:35:48;;;;;;;3.72;1.98;;;;;;;;;;5055941;28;20199;-80
2021/11/29 09:38:15;;;;;;;2.10;1.77;;;;;;;;;;5059540;28;20199;-80
2021/11/29 09:40:43;;;;;;;2.10;1.65;;;;;;;;;;5052122;28;20195;-79
2021/11/29 09:43:11;;;;;;;2.15;1.80;;;;;;;;;;5064049;28;20190;-76
2021/11/29 09:45:39;;;;;;;3.28;2.35;;;;;;;;;;5054336;28;20608;-79
2021/11/29 09:48:07;;;;;;;2.40;1.90;;;;;;;;;;5058113;28;20238;-80
2021/11/29 09:50:36;;;;;;;1.98;1.77;;;;;;;;;;5060520;28;20202;-80
2021/11/29 09:53:03;;;;;;;4.43;2.00;;;;;;;;;;5051225;28;20221;-80
2021/11/29 09:55:31;;;;;;;2.45;1.92;;;;;;;;;;5064786;28;20198;-80
2021/11/29 09:57:59;;;;;;;2.05;1.95;;;;;;;;;;5065326;28;20619;-78
2021/11/29 10:00:28;;;;;;;1.40;1.30;;;;;;;;;;5064572;28;20210;-78
2021/11/29 10:02:55;;;;;;;2.78;1.73;;;;;;;;;;5058738;28;20803;-78
2021/11/29 10:05:24;;;;;;;3.30;1.63;;;;;;;;;;5069716;28;20194;-79
2021/11/29 10:07:53;;;;;;;2.08;1.80;;;;;;;;;;5055373;28;20649;-79
2021/11/29 10:10:23;;;;;;;1.98;1.80;;;;;;;;;;5060682;28;20194;-79
2021/11/29 10:12:51;;;;;;;2.45;2.22;;;;;;;;;;5061616;28;20214;-78
2021/11/29 10:15:21;;;;;;;2.55;1.80;;;;;;;;;;5058971;28;20651;-78
2021/11/29 10:17:50;;;;;;;1.80;1.70;;;;;;;;;;5052978;28;20191;-79
2021/11/29 10:20:17;;;;;;;2.25;1.70;;;;;;;;;;5054639;28;20195;-79
2021/11/29 10:22:58;;;;;;;1.70;1.50;;;;;;;;;;5070082;28;20193;-80
2021/11/29 10:25:25;;;;;;;2.40;1.80;;;;;;;;;;5058802;28;20205;-79
2021/11/29 10:27:53;;;;;;;2.83;2.03;;;;;;;;;;5061595;28;20197;-79
2021/11/29 10:30:20;;;;;;;3.92;2.08;;;;;;;;;;5070531;28;20557;-80
2021/11/29 10:32:48;;;;;;;3.65;2.10;;;;;;;;;;5062034;28;20210;-79
2021/11/29 10:35:16;;;;;;;3.15;2.10;;;;;;;;;;5062344;28;20237;-80
2021/11/29 10:37:46;;;;;;;2.30;1.98;;;;;;;;;;5066425;28;20198;-78
2021/11/29 10:40:16;;;;;;;2.55;1.20;;;;;;;;;;5058863;28;20209;-79
2021/11/29 10:42:43;;;;;;;5.40;1.77;;;;;;;;;;5060612;28;20194;-78
2021/11/29 10:45:22;;;;;;;3.25;2.95;;;;;;;;;;5062850;28;20205;-79
2021/11/29 10:47:50;;;;;;;6.70;2.00;;;;;;;;;;5066946;28;20202;-79
2021/11/29 10:50:17;;;;;;;4.15;2.03;;;;;;;;;;5059356;28;20203;-79
2021/11/29 10:52:47;;;;;;;2.33;2.13;;;;;;;;;;5065067;28;20214;-79
2021/11/29 10:55:15;;;;;;;3.58;2.22;;;;;;;;;;5055212;28;20281;-80
2021/11/29 10:57:47;;;;;;;3.25;2.20;;;;;;;;;;5062552;28;20206;-80
2021/11/29 11:00:17;;;;;;;2.53;1.80;;;;;;;;;;5062604;28;20218;-79
2021/11/29 11:03:00;;;;;;;3.08;2.10;;;;;;;;;;5061559;28;20641;-79
2021/11/29 11:05:27;;;;;;;1.60;1.50;;;;;;;;;;5063256;28;20685;-80
2021/11/29 11:07:54;;;;;;;2.78;1.73;;;;;;;;;;5055877;28;20187;-80
2021/11/29 11:10:24;;;;;;;3.20;2.10;;;;;;;;;;5053401;28;20195;-80
2021/11/29 11:12:59;;;;;;;2.25;1.85;;;;;;;;;;5061204;28;20223;-78
2021/11/29 11:15:26;;;;;;;2.78;1.55;;;;;;;;;;5062136;28;20569;-78
2021/11/29 11:17:54;;;;;;;3.75;1.30;;;;;;;;;;5065317;28;20198;-77
2021/11/29 11:20:21;;;;;;;4.47;2.78;;;;;;;;;;5054102;28;20194;-78
2021/11/29 11:22:51;;;;;;;3.10;2.25;;;;;;;;;;5062177;28;20218;-78
2021/11/29 11:25:19;;;;;;;2.33;2.10;;;;;;;;;;5057818;28;20194;-79
2021/11/29 11:27:55;;;;;;;2.42;2.00;;;;;;;;;;5060463;28;20213;-79
2021/11/29 11:30:22;;;;;;;5.68;2.15;;;;;;;;;;5065826;28;20202;-79
2021/11/29 11:32:50;;;;;;;2.80;2.10;;;;;;;;;;5065043;28;20217;-79
2021/11/29 11:35:18;;;;;;;4.05;1.90;;;;;;;;;;5063920;28;20198;-80
2021/11/29 11:37:46;;;;;;;2.72;1.75;;;;;;;;;;5067062;28;20194;-78
2021/11/29 11:40:15;;;;;;;2.15;1.85;;;;;;;;;;5056491;28;20210;-78
2021/11/29 11:42:42;;;;;;;1.83;1.73;;;;;;;;;;5062940;28;20191;-79
2021/11/29 11:45:12;;;;;;;3.78;1.90;;;;;;;;;;5064792;28;20201;-78
2021/11/29 11:47:39;;;;;;;1.77;1.45;;;;;;;;;;5060073;28;20190;-78
2021/11/29 11:50:09;;;;;;;2.28;1.58;;;;;;;;;;5061198;28;20539;-79
2021/11/29 11:52:36;;;;;;;3.78;1.77;;;;;;;;;;5061763;28;20218;-78
2021/11/29 11:55:04;;;;;;;1.92;1.83;;;;;;;;;;5068671;28;20202;-79
2021/11/29 11:57:32;;;;;;;5.07;1.35;;;;;;;;;;5060484;28;20210;-79
2021/11/29 12:00:08;;;;;;;2.95;1.50;;;;;;;;;;5062031;28;20226;-79
2021/11/29 12:02:50;;;;;;;2.00;1.55;;;;;;;;;;5052891;28;20195;-79
2021/11/29 12:05:19;;;;;;;2.67;1.92;;;;;;;;;;5057432;28;20202;-79
2021/11/29 12:07:47;;;;;;;4.60;1.88;;;;;;;;;;5063849;28;20191;-77
2021/11/29 12:10:32;;;;;;;1.60;1.50;;;;;;;;;;5064347;28;20195;-78
2021/11/29 12:13:00;;;;;;;2.00;1.80;;;;;;;;;;5054717;28;20211;-79
2021/11/29 12:15:37;;;;;;;2.22;1.45;;;;;;;;;;5053974;28;20195;-78
2021/11/29 12:18:04;;;;;;;2.00;1.90;;;;;;;;;;5074167;28;20225;-77
2021/11/29 12:20:32;;;;;;;1.83;1.60;;;;;;;;;;5065624;28;20557;-77
2021/11/29 12:22:59;;;;;;;1.67;1.30;;;;;;;;;;5077705;28;20194;-77
2021/11/29 12:25:26;;;;;;;2.88;1.60;;;;;;;;;;5076164;28;20183;-77
2021/11/29 12:27:55;;;;;;;4.88;1.92;;;;;;;;;;5088879;28;20194;-77
2021/11/29 12:30:33;;;;;;;2.65;1.45;;;;;;;;;;5069822;28;20187;-77
2021/11/29 12:33:02;;;;;;;2.85;1.50;;;;;;;;;;5083369;28;20225;-77
2021/11/29 12:35:38;;;;;;;2.00;1.65;;;;;;;;;;5083627;28;20191;-77
2021/11/29 12:38:06;;;;;;;2.65;1.42;;;;;;;;;;5082188;28;20209;-77
2021/11/29 12:40:44;;;;;;;1.92;1.83;;;;;;;;;;5073827;28;20234;-77
2021/11/29 12:43:11;;;;;;;1.88;1.75;;;;;;;;;;5079097;28;20668;-77
2021/11/29 12:45:39;;;;;;;3.97;1.92;;;;;;;;;;5071796;28;20320;-77
2021/11/29 12:48:17;;;;;;;2.10;1.90;;;;;;;;;;5079906;28;20224;-77
2021/11/29 12:50:51;;;;;;;1.70;1.55;;;;;;;;;;5078019;28;20194;-77
2021/11/29 12:53:20;;;;;;;2.28;1.20;;;;;;;;;;5072354;28;20217;-77
2021/11/29 12:55:49;;;;;;;2.35;2.10;;;;;;;;;;5077794;28;20687;-77
2021/11/29 12:58:20;;;;;;;1.65;1.55;;;;;;;;;;5084747;28;20198;-77
2021/11/29 13:00:48;;;;;;;2.20;1.75;;;;;;;;;;5071268;28;20221;-77
2021/11/29 13:03:16;;;;;;;1.85;1.67;;;;;;;;;;5079174;28;20225;-78
2021/11/29 13:05:44;;;;;;;3.55;1.90;;;;;;;;;;5081819;28;20200;-77
2021/11/29 13:08:19;;;;;;;1.70;1.48;;;;;;;;;;5082924;28;20218;-78
2021/11/29 13:10:52;;;;;;;2.25;2.05;;;;;;;;;;5079961;28;20224;-78
2021/11/29 13:13:34;;;;;;;2.38;1.70;;;;;;;;;;5067677;28;20594;-78
2021/11/29 13:16:03;;;;;;;1.85;1.52;;;;;;;;;;5073218;28;20194;-77
2021/11/29 13:18:50;;;;;;;1.95;1.75;;;;;;;;;;5070056;28;20213;-78
2021/11/29 13:21:19;;;;;;;2.80;2.60;;;;;;;;;;5089594;28;20200;-77
2021/11/29 13:23:47;;;;;;;1.55;1.25;;;;;;;;;;5086266;28;20194;-77
2021/11/29 13:26:14;;;;;;;2.50;2.00;;;;;;;;;;5083009;28;20195;-77
2021/11/29 13:28:43;;;;;;;1.98;1.70;;;;;;;;;;5071406;28;20198;-77
2021/11/29 13:31:10;;;;;;;2.47;1.90;;;;;;;;;;5073884;28;20195;-77
2021/11/29 13:33:38;;;;;;;3.63;1.70;;;;;;;;;;5072997;28;20206;-77
2021/11/29 13:36:05;;;;;;;2.45;1.73;;;;;;;;;;5063911;28;20190;-77
2021/11/29 13:38:35;;;;;;;2.97;1.70;;;;;;;;;;5081355;28;20220;-78
2021/11/29 13:41:04;;;;;;;2.17;1.70;;;;;;;;;;5067878;28;20285;-77
2021/11/29 13:43:31;;;;;;;2.15;1.85;;;;;;;;;;5065246;28;20634;-75
2021/11/29 13:45:58;;;;;;;1.83;1.48;;;;;;;;;;5064107;28;20205;-77
2021/11/29 13:48:27;;;;;;;1.80;1.70;;;;;;;;;;5059319;28;20210;-77
2021/11/29 13:50:55;;;;;;;7.00;2.50;;;;;;;;;;5059698;28;20204;-77
2021/11/29 13:53:28;;;;;;;2.70;2.00;;;;;;;;;;5053304;28;20653;-76
2021/11/29 13:55:58;;;;;;;2.78;1.85;;;;;;;;;;5062413;28;20712;-76
2021/11/29 13:58:29;;;;;;;2.75;2.10;;;;;;;;;;5053662;28;20190;-77
2021/11/29 14:00:57;;;;;;;2.15;1.95;;;;;;;;;;5058723;28;20223;-77
2021/11/29 14:03:26;;;;;;;2.15;1.67;;;;;;;;;;5065539;28;20290;-77
2021/11/29 14:05:54;;;;;;;2.50;2.13;;;;;;;;;;5059174;28;20198;-77
2021/11/29 14:08:22;;;;;;;3.72;2.08;;;;;;;;;;5068768;28;20559;-76
2021/11/29 14:10:50;;;;;;;2.33;1.80;;;;;;;;;;5061943;28;20202;-77
2021/11/29 14:13:20;;;;;;;2.25;1.80;;;;;;;;;;5070921;28;20409;-76
2021/11/29 14:15:53;;;;;;;2.28;2.00;;;;;;;;;;5069643;28;20617;-76
2021/11/29 14:18:23;;;;;;;2.78;2.58;;;;;;;;;;5063975;28;20221;-77
2021/11/29 14:20:54;;;;;;;2.38;2.17;;;;;;;;;;5075167;28;20195;-76
2021/11/29 14:23:22;;;;;;;1.88;1.63;;;;;;;;;;5075585;28;20209;-77
2021/11/29 14:25:49;;;;;;;2.13;1.90;;;;;;;;;;5063913;28;20210;-76
2021/11/29 14:28:16;;;;;;;1.60;1.30;;;;;;;;;;5057213;28;20692;-76
2021/11/29 14:30:43;;;;;;;1.90;1.55;;;;;;;;;;5057776;28;20206;-77
2021/11/29 14:33:12;;;;;;;1.60;1.48;;;;;;;;;;5059248;28;20221;-76
2021/11/29 14:35:39;;;;;;;2.38;1.77;;;;;;;;;;5060189;28;20561;-77
2021/11/29 14:38:06;;;;;;;2.03;1.80;;;;;;;;;;5054121;28;20191;-76
2021/11/29 14:40:33;;;;;;;2.30;2.10;;;;;;;;;;5054506;28;20195;-77
2021/11/29 14:43:00;;;;;;;1.83;1.52;;;;;;;;;;5058181;28;20426;-77
2021/11/29 14:45:29;;;;;;;2.65;2.40;;;;;;;;;;5060836;28;20198;-77
2021/11/29 14:47:58;;;;;;;2.30;2.10;;;;;;;;;;5053473;28;20199;-77